Holmesville, Mississippi
Current Conditions -  °F | °C
As of 7:53 PM on Monday 24 Nov 2014 (Local Time) from KMCB Reporting Station
Clear Clear  
Wind Chill: 52°   Ceiling: Unl
Heat Index: 52°   Visibility: 10mi
Dew Point: 35°   Wind: 6mph
Humidity: 53%   Direction: 350°N
Pressure: 30.04"   Gusts: NA
Location:  31.1693°N, 90.3678°W
Report Text: KMCB 250153Z AUTO 35005KT 10SM CLR 11/02 A3004 RMK AO2 SLP169 T01110017
Loading
Personal Weather Stations






























Interactive Weather Map New forecast layout! Learn more

10-Day Weather Forecast

Advertisements
Track Severe Weather on mobile